createdAt,value
2023-03-15T00:01:16.543Z,1.38
2023-03-15T00:03:43.471Z,1.13
2023-03-15T00:06:10.471Z,1.67
2023-03-15T00:08:37.312Z,1.20
2023-03-15T00:11:04.229Z,1.55
2023-03-15T00:13:30.952Z,1.50
2023-03-15T00:15:59.451Z,1.13
2023-03-15T00:18:27.508Z,1.20
2023-03-15T00:20:54.269Z,1.10
2023-03-15T00:23:21.103Z,1.00
2023-03-15T00:25:48.357Z,1.30
2023-03-15T00:28:15.450Z,1.15
2023-03-15T00:30:42.353Z,1.65
2023-03-15T00:33:09.349Z,1.42
2023-03-15T00:35:41.121Z,1.52
2023-03-15T00:38:08.023Z,1.63
2023-03-15T00:40:35.736Z,1.52
2023-03-15T00:43:03.429Z,1.30
2023-03-15T00:45:30.069Z,3.00
2023-03-15T00:47:56.711Z,1.25
2023-03-15T00:50:23.475Z,1.48
2023-03-15T00:52:50.449Z,1.80
2023-03-15T00:55:18.461Z,2.03
2023-03-15T00:57:45.695Z,1.50
2023-03-15T01:00:16.039Z,2.83
2023-03-15T01:02:42.845Z,1.48
2023-03-15T01:05:13.466Z,1.73
2023-03-15T01:07:40.193Z,1.60
2023-03-15T01:10:07.594Z,2.55
2023-03-15T01:12:35.010Z,1.20
2023-03-15T01:15:03.691Z,1.20
2023-03-15T01:17:30.377Z,1.00
2023-03-15T01:19:57.677Z,1.15
2023-03-15T01:22:24.513Z,1.30
2023-03-15T01:24:51.137Z,1.25
2023-03-15T01:27:17.890Z,1.40
2023-03-15T01:29:44.500Z,1.50
2023-03-15T01:32:11.184Z,1.30
2023-03-15T01:34:37.986Z,1.20
2023-03-15T01:37:04.683Z,1.48
2023-03-15T01:39:31.426Z,1.48
2023-03-15T01:41:58.209Z,1.40
2023-03-15T01:44:25.064Z,1.45
2023-03-15T01:46:51.803Z,1.40
2023-03-15T01:49:27.669Z,1.40
2023-03-15T01:52:01.592Z,1.33
2023-03-15T01:54:34.478Z,1.30
2023-03-15T01:57:10.998Z,1.83
2023-03-15T01:59:41.228Z,1.48
2023-03-15T02:02:08.204Z,1.42
2023-03-15T02:04:38.633Z,1.38
2023-03-15T02:07:05.474Z,1.40
2023-03-15T02:09:42.429Z,1.52
2023-03-15T02:12:09.849Z,1.20
2023-03-15T02:14:36.498Z,1.20
2023-03-15T02:17:03.370Z,1.60
2023-03-15T02:19:38.016Z,1.50
2023-03-15T02:22:12.781Z,1.50
2023-03-15T02:24:46.330Z,1.65
2023-03-15T02:27:12.980Z,1.83
2023-03-15T02:29:39.710Z,1.95
2023-03-15T02:32:06.867Z,2.05
2023-03-15T02:34:33.716Z,2.17
2023-03-15T02:37:00.308Z,2.20
2023-03-15T02:39:27.204Z,1.67
2023-03-15T02:41:55.553Z,1.67
2023-03-15T02:44:28.155Z,2.58
2023-03-15T02:46:55.501Z,2.05
2023-03-15T02:49:24.000Z,2.50
2023-03-15T02:51:50.631Z,2.40
2023-03-15T02:54:17.302Z,2.53
2023-03-15T02:56:44.048Z,2.50
2023-03-15T02:59:12.782Z,2.13
2023-03-15T03:01:39.791Z,2.15
2023-03-15T03:04:06.558Z,1.98
2023-03-15T03:06:33.245Z,2.25
2023-03-15T03:08:59.975Z,2.42
2023-03-15T03:11:26.604Z,2.40
2023-03-15T03:13:53.218Z,2.42
2023-03-15T03:16:19.916Z,2.92
2023-03-15T03:18:46.568Z,2.47
2023-03-15T03:21:14.715Z,2.55
2023-03-15T03:23:41.360Z,2.35
2023-03-15T03:26:16.529Z,2.92
2023-03-15T03:28:44.622Z,2.35
2023-03-15T03:31:19.981Z,2.67
2023-03-15T03:33:47.142Z,2.63
2023-03-15T03:36:13.856Z,2.95
2023-03-15T03:38:41.989Z,2.97
2023-03-15T03:41:09.647Z,3.40
2023-03-15T03:43:36.571Z,2.78
2023-03-15T03:46:03.639Z,3.00
2023-03-15T03:48:31.139Z,3.03
2023-03-15T03:50:58.396Z,2.83
2023-03-15T03:53:25.350Z,3.55
2023-03-15T03:55:52.024Z,3.35
2023-03-15T03:58:18.765Z,4.80
2023-03-15T04:00:45.514Z,2.78
2023-03-15T04:03:12.200Z,2.70
2023-03-15T04:05:38.815Z,3.13
2023-03-15T04:08:05.694Z,3.30
2023-03-15T04:10:35.035Z,2.83
2023-03-15T04:13:01.809Z,3.13
2023-03-15T04:15:28.501Z,3.05
2023-03-15T04:17:58.457Z,3.50
2023-03-15T04:20:26.809Z,3.50
2023-03-15T04:22:54.648Z,3.20
2023-03-15T04:25:21.916Z,2.65
2023-03-15T04:27:58.707Z,3.08
2023-03-15T04:30:28.095Z,3.53
2023-03-15T04:32:58.976Z,3.88
2023-03-15T04:35:26.854Z,2.83
2023-03-15T04:37:53.794Z,3.58
2023-03-15T04:40:24.079Z,3.30
2023-03-15T04:42:51.457Z,3.80
2023-03-15T04:45:18.377Z,4.15
2023-03-15T04:47:45.027Z,3.65
2023-03-15T04:50:13.242Z,2.90
2023-03-15T04:52:39.957Z,4.07
2023-03-15T04:55:06.881Z,2.90
2023-03-15T04:57:33.653Z,3.60
2023-03-15T05:00:00.381Z,3.70
2023-03-15T05:02:27.074Z,3.53
2023-03-15T05:04:53.781Z,3.75
2023-03-15T05:07:20.457Z,4.00
2023-03-15T05:09:47.929Z,3.08
2023-03-15T05:12:14.627Z,3.25
2023-03-15T05:14:41.414Z,4.22
2023-03-15T05:17:08.114Z,3.58
2023-03-15T05:19:35.050Z,3.20
2023-03-15T05:22:02.480Z,2.88
2023-03-15T05:24:29.368Z,3.00
2023-03-15T05:26:56.306Z,3.08
2023-03-15T05:29:23.137Z,3.25
2023-03-15T05:31:50.230Z,3.42
2023-03-15T05:34:17.061Z,5.05
2023-03-15T05:36:43.865Z,4.75
2023-03-15T05:39:11.463Z,3.55
2023-03-15T05:41:38.330Z,5.07
2023-03-15T05:44:05.239Z,3.42
2023-03-15T05:46:32.026Z,4.50
2023-03-15T05:48:58.880Z,3.17
2023-03-15T05:51:25.529Z,4.10
2023-03-15T05:53:52.332Z,3.40
2023-03-15T05:56:19.098Z,3.60
2023-03-15T05:58:45.931Z,3.25
2023-03-15T06:01:12.643Z,3.75
2023-03-15T06:03:39.385Z,3.80
2023-03-15T06:06:06.512Z,3.88
2023-03-15T06:08:33.298Z,3.70
2023-03-15T06:11:00.171Z,4.03
2023-03-15T06:13:26.832Z,4.05
2023-03-15T06:15:53.460Z,3.58
2023-03-15T06:18:20.177Z,5.10
2023-03-15T06:20:46.801Z,4.03
2023-03-15T06:23:13.476Z,4.05
2023-03-15T06:25:40.186Z,3.78
2023-03-15T06:28:06.865Z,2.65
2023-03-15T06:30:33.597Z,4.15
2023-03-15T06:33:01.080Z,3.92
2023-03-15T06:35:27.856Z,3.78
2023-03-15T06:37:54.617Z,3.55
2023-03-15T06:40:21.223Z,3.38
2023-03-15T06:42:47.952Z,4.10
2023-03-15T06:45:16.368Z,4.13
2023-03-15T06:47:43.117Z,4.30
2023-03-15T06:50:10.686Z,4.55
2023-03-15T06:52:38.741Z,4.28
2023-03-15T06:55:05.844Z,4.32
2023-03-15T06:57:32.521Z,4.70
2023-03-15T06:59:59.178Z,5.00
2023-03-15T07:02:25.844Z,5.35
2023-03-15T07:04:55.675Z,5.05
2023-03-15T07:07:22.252Z,5.07
2023-03-15T07:09:48.854Z,5.28
2023-03-15T07:12:15.508Z,5.55
2023-03-15T07:14:42.152Z,5.45
2023-03-15T07:17:09.338Z,5.13
2023-03-15T07:19:41.451Z,6.60
2023-03-15T07:22:13.465Z,4.78
2023-03-15T07:24:40.739Z,6.15
2023-03-15T07:27:07.533Z,5.22
2023-03-15T07:29:34.161Z,5.05
2023-03-15T07:32:01.572Z,6.10
2023-03-15T07:34:28.219Z,5.90
2023-03-15T07:36:55.012Z,5.28
2023-03-15T07:39:21.898Z,10.00
2023-03-15T07:41:48.702Z,6.05
2023-03-15T07:44:15.459Z,5.28
2023-03-15T07:46:42.180Z,5.55
2023-03-15T07:49:08.828Z,6.65
2023-03-15T07:51:35.503Z,7.45
2023-03-15T07:54:02.141Z,6.25
2023-03-15T07:56:28.738Z,5.25
2023-03-15T07:58:55.354Z,5.22
2023-03-15T08:01:21.942Z,5.10
2023-03-15T08:03:48.612Z,5.93
2023-03-15T08:06:15.242Z,5.70
2023-03-15T08:08:42.023Z,7.30
2023-03-15T08:11:08.664Z,6.53
2023-03-15T08:13:35.736Z,5.30
2023-03-15T08:16:02.401Z,5.93
2023-03-15T08:18:29.087Z,5.88
2023-03-15T08:20:55.954Z,5.57
2023-03-15T08:23:22.805Z,5.75
2023-03-15T08:25:50.074Z,6.43
2023-03-15T08:28:17.012Z,6.47
2023-03-15T08:30:43.756Z,5.00
2023-03-15T08:33:12.615Z,5.15
2023-03-15T08:35:39.386Z,6.10
2023-03-15T08:38:06.120Z,5.78
2023-03-15T08:40:32.873Z,5.55
2023-03-15T08:42:59.686Z,5.32
2023-03-15T08:45:26.700Z,8.63
2023-03-15T08:47:55.940Z,5.43
2023-03-15T08:50:22.662Z,5.95
2023-03-15T08:52:49.258Z,5.95
2023-03-15T08:55:16.089Z,5.13
2023-03-15T08:57:43.209Z,6.43
2023-03-15T09:00:15.200Z,6.28
2023-03-15T09:02:41.977Z,5.40
2023-03-15T09:05:11.806Z,5.45
2023-03-15T09:07:39.698Z,4.97
2023-03-15T09:10:06.700Z,5.70
2023-03-15T09:12:33.433Z,4.95
2023-03-15T09:15:02.691Z,5.90
2023-03-15T09:17:29.252Z,4.80
2023-03-15T09:19:56.356Z,5.00
2023-03-15T09:22:38.621Z,4.50
2023-03-15T09:25:06.878Z,4.85
2023-03-15T09:27:33.816Z,4.55
2023-03-15T09:30:00.765Z,4.28
2023-03-15T09:32:27.705Z,4.82
2023-03-15T09:34:54.343Z,5.20
2023-03-15T09:37:21.840Z,4.82
2023-03-15T09:39:48.735Z,5.07
2023-03-15T09:42:19.376Z,4.15
2023-03-15T09:44:48.570Z,4.85
2023-03-15T09:47:45.152Z,4.63
2023-03-15T09:50:31.658Z,4.57
2023-03-15T09:53:03.174Z,4.43
2023-03-15T09:55:29.903Z,4.22
2023-03-15T09:57:59.965Z,3.75
2023-03-15T10:00:50.988Z,4.75
2023-03-15T10:03:40.912Z,4.18
2023-03-15T10:06:28.138Z,3.63
2023-03-15T10:08:57.932Z,4.40
2023-03-15T10:11:34.292Z,4.88
2023-03-15T10:14:26.780Z,4.13
2023-03-15T10:16:53.604Z,3.75
2023-03-15T10:19:45.843Z,3.63
2023-03-15T10:22:19.932Z,4.32
2023-03-15T10:24:55.299Z,3.28
2023-03-15T10:27:31.967Z,3.17
2023-03-15T10:29:58.771Z,3.67
2023-03-15T10:32:29.911Z,2.53
2023-03-15T10:34:57.136Z,3.25
2023-03-15T10:37:24.686Z,3.67
2023-03-15T10:39:55.862Z,2.17
2023-03-15T10:42:32.086Z,2.05
2023-03-15T10:44:58.957Z,2.65
2023-03-15T10:47:26.597Z,2.92
2023-03-15T10:49:57.680Z,2.20
2023-03-15T10:52:44.353Z,5.00
2023-03-15T10:55:21.765Z,2.55
2023-03-15T10:57:54.143Z,2.42
2023-03-15T11:00:37.274Z,2.78
2023-03-15T11:03:06.549Z,2.15
2023-03-15T11:05:40.529Z,2.20
2023-03-15T11:08:11.666Z,2.45
2023-03-15T11:10:38.230Z,2.03
2023-03-15T11:13:22.537Z,1.98
2023-03-15T11:19:00.311Z,2.88
2023-03-15T11:21:30.696Z,3.25
2023-03-15T11:23:58.249Z,2.10
2023-03-15T11:26:33.379Z,2.22
2023-03-15T11:29:04.574Z,2.58
2023-03-15T11:31:31.340Z,2.15
2023-03-15T11:34:00.764Z,1.52
2023-03-15T11:36:30.075Z,2.00
2023-03-15T11:38:56.806Z,2.00
2023-03-15T11:41:44.555Z,1.85
2023-03-15T11:44:26.637Z,1.50
2023-03-15T11:46:58.961Z,1.45
2023-03-15T11:49:37.193Z,1.98
2023-03-15T11:52:04.331Z,1.67
2023-03-15T11:54:32.169Z,2.72
2023-03-15T11:57:06.157Z,2.08
2023-03-15T11:59:37.991Z,1.38
2023-03-15T12:02:34.451Z,1.08
2023-03-15T12:05:09.234Z,1.50
2023-03-15T12:07:57.781Z,1.30
2023-03-15T12:10:31.508Z,1.50
2023-03-15T12:12:59.433Z,2.05
2023-03-15T12:15:32.242Z,1.77
2023-03-15T12:17:59.985Z,1.40
2023-03-15T12:20:43.072Z,1.55
2023-03-15T12:23:35.601Z,1.58
2023-03-15T12:26:05.897Z,1.75
2023-03-15T12:28:52.381Z,1.42
2023-03-15T12:31:19.352Z,0.90
2023-03-15T12:33:49.961Z,1.30
2023-03-15T12:36:37.150Z,1.50
2023-03-15T12:39:34.686Z,1.88
2023-03-15T12:42:01.307Z,1.50
2023-03-15T12:44:43.982Z,1.35
2023-03-15T12:47:11.627Z,1.17
2023-03-15T12:49:42.671Z,1.77
2023-03-15T12:57:35.933Z,1.10
2023-03-15T13:00:07.271Z,1.70
2023-03-15T13:02:43.338Z,1.45
2023-03-15T13:05:17.133Z,1.30
2023-03-15T13:07:56.371Z,2.90
2023-03-15T13:10:47.867Z,1.00
2023-03-15T13:13:38.172Z,1.15
2023-03-15T13:16:27.978Z,1.00
2023-03-15T13:19:05.260Z,1.48
2023-03-15T13:21:35.814Z,1.00
2023-03-15T13:24:03.354Z,1.13
2023-03-15T13:26:53.143Z,1.00
2023-03-15T13:29:22.336Z,1.08
2023-03-15T13:31:59.229Z,1.65
2023-03-15T13:34:25.848Z,0.90
2023-03-15T13:36:57.264Z,1.15
2023-03-15T13:39:27.131Z,1.17
2023-03-15T13:41:59.032Z,1.35
2023-03-15T13:44:25.991Z,1.40
2023-03-15T13:46:53.031Z,0.82
2023-03-15T13:49:19.964Z,0.90
2023-03-15T13:51:47.678Z,1.00
2023-03-15T13:54:29.668Z,1.27
2023-03-15T13:57:13.249Z,1.10
2023-03-15T13:59:44.259Z,1.45
2023-03-15T14:02:16.239Z,1.38
2023-03-15T14:04:43.166Z,1.05
2023-03-15T14:07:28.860Z,1.20
2023-03-15T14:10:19.069Z,1.85
2023-03-15T14:12:46.084Z,1.80
2023-03-15T14:15:17.791Z,1.40
2023-03-15T14:20:53.575Z,1.35
2023-03-15T14:23:22.963Z,1.70
2023-03-15T14:25:52.178Z,1.35
2023-03-15T14:28:18.808Z,1.50
2023-03-15T14:30:53.245Z,1.30
2023-03-15T14:33:28.746Z,1.73
2023-03-15T14:35:57.777Z,1.40
2023-03-15T14:38:25.702Z,1.42
2023-03-15T14:40:52.993Z,2.08
2023-03-15T14:43:19.704Z,1.80
2023-03-15T14:45:47.208Z,1.52
2023-03-15T14:48:27.049Z,1.73
2023-03-15T14:50:53.734Z,1.20
2023-03-15T14:53:22.469Z,1.88
2023-03-15T14:55:49.181Z,1.20
2023-03-15T14:58:18.508Z,1.95
2023-03-15T15:00:47.742Z,1.08
2023-03-15T15:03:20.290Z,1.42
2023-03-15T15:05:46.916Z,1.20
2023-03-15T15:08:14.788Z,0.88
2023-03-15T15:10:42.480Z,1.88
2023-03-15T15:13:21.679Z,1.27
2023-03-15T15:15:55.600Z,1.73
2023-03-15T15:18:25.008Z,1.42
2023-03-15T15:20:54.250Z,1.70
2023-03-15T15:23:54.859Z,1.33
2023-03-15T15:26:26.143Z,1.40
2023-03-15T15:28:53.055Z,1.35
2023-03-15T15:31:22.653Z,2.47
2023-03-15T15:33:50.450Z,1.40
2023-03-15T15:36:29.887Z,1.40
2023-03-15T15:38:57.698Z,1.52
2023-03-15T15:41:25.814Z,1.23
2023-03-15T15:43:52.534Z,1.30
2023-03-15T15:46:19.176Z,1.20
2023-03-15T15:48:45.814Z,1.48
2023-03-15T15:54:01.223Z,1.08
2023-03-15T15:56:32.230Z,2.03
2023-03-15T15:58:59.104Z,1.80
2023-03-15T16:01:25.815Z,1.85
2023-03-15T16:03:52.534Z,2.00
2023-03-15T16:06:20.062Z,1.73
2023-03-15T16:08:47.046Z,1.42
2023-03-15T16:11:14.960Z,1.13
2023-03-15T16:13:42.223Z,1.60
2023-03-15T16:16:14.372Z,1.77
2023-03-15T16:18:41.555Z,1.83
2023-03-15T16:21:12.184Z,1.80
2023-03-15T16:23:38.789Z,1.65
2023-03-15T16:26:05.690Z,2.00
2023-03-15T16:28:32.805Z,1.92
2023-03-15T16:30:59.513Z,2.08
2023-03-15T16:33:26.233Z,1.75
2023-03-15T16:35:53.068Z,1.90
2023-03-15T16:38:24.230Z,2.03
2023-03-15T16:40:52.151Z,2.08
2023-03-15T16:43:19.229Z,1.92
2023-03-15T16:45:46.280Z,2.17
2023-03-15T16:48:13.109Z,1.60
2023-03-15T16:50:40.857Z,2.15
2023-03-15T16:53:08.253Z,1.58
2023-03-15T16:55:35.159Z,2.13
2023-03-15T16:58:03.016Z,1.90
2023-03-15T17:00:31.445Z,2.20
2023-03-15T17:03:00.039Z,1.88
2023-03-15T17:05:26.725Z,2.78
2023-03-15T17:07:53.872Z,2.15
2023-03-15T17:10:25.287Z,1.92
2023-03-15T17:12:52.488Z,2.47
2023-03-15T17:15:21.519Z,2.15
2023-03-15T17:17:48.730Z,3.25
2023-03-15T17:20:21.350Z,2.92
2023-03-15T17:25:16.758Z,3.63
2023-03-15T17:27:44.369Z,3.20
2023-03-15T17:30:16.624Z,3.10
2023-03-15T17:32:43.337Z,2.65
2023-03-15T17:35:10.355Z,3.50
2023-03-15T17:37:37.151Z,3.15
2023-03-15T17:40:19.676Z,3.65
2023-03-15T17:42:46.390Z,2.60
2023-03-15T17:45:21.148Z,3.20
2023-03-15T17:47:48.794Z,2.15
2023-03-15T17:50:15.587Z,2.58
2023-03-15T17:52:42.722Z,1.60
2023-03-15T17:55:14.961Z,1.90
2023-03-15T17:57:45.863Z,2.58
2023-03-15T18:00:20.322Z,2.45
2023-03-15T18:02:55.032Z,1.98
2023-03-15T18:05:24.176Z,3.22
2023-03-15T18:07:58.631Z,3.03
2023-03-15T18:10:26.334Z,1.77
2023-03-15T18:12:53.692Z,2.03
2023-03-15T18:15:21.178Z,2.25
2023-03-15T18:17:47.892Z,2.40
2023-03-15T18:20:15.320Z,2.85
2023-03-15T18:22:42.089Z,2.22
2023-03-15T18:25:20.573Z,3.28
2023-03-15T18:27:47.322Z,2.70
2023-03-15T18:30:15.541Z,2.40
2023-03-15T18:32:42.258Z,3.60
2023-03-15T18:35:14.030Z,2.70
2023-03-15T18:37:40.627Z,2.20
2023-03-15T18:40:08.540Z,2.58
2023-03-15T18:42:35.159Z,2.50
2023-03-15T18:45:01.777Z,2.63
2023-03-15T18:47:28.447Z,3.30
2023-03-15T18:50:01.009Z,4.03
2023-03-15T18:52:31.539Z,3.05
2023-03-15T18:54:58.764Z,3.00
2023-03-15T18:57:25.349Z,2.72
2023-03-15T18:59:52.063Z,3.40
2023-03-15T19:02:18.698Z,2.47
2023-03-15T19:04:45.357Z,2.35
2023-03-15T19:07:12.086Z,2.85
2023-03-15T19:09:38.707Z,3.17
2023-03-15T19:12:05.475Z,3.88
2023-03-15T19:14:32.297Z,2.92
2023-03-15T19:16:59.951Z,3.17
2023-03-15T19:19:26.589Z,3.35
2023-03-15T19:21:55.236Z,3.08
2023-03-15T19:24:22.421Z,3.08
2023-03-15T19:26:49.066Z,2.92
2023-03-15T19:29:15.753Z,3.63
2023-03-15T19:31:42.508Z,2.85
2023-03-15T19:34:09.178Z,2.80
2023-03-15T19:36:35.881Z,4.75
2023-03-15T19:39:05.600Z,3.40
2023-03-15T19:41:32.304Z,2.85
2023-03-15T19:43:59.093Z,3.50
2023-03-15T19:46:25.765Z,2.90
2023-03-15T19:48:52.417Z,5.20
2023-03-15T19:51:19.240Z,4.57
2023-03-15T19:53:46.012Z,5.05
2023-03-15T19:56:12.698Z,3.50
2023-03-15T19:58:39.361Z,4.20
2023-03-15T20:01:06.080Z,3.65
2023-03-15T20:03:34.737Z,3.58
2023-03-15T20:06:07.611Z,3.40
2023-03-15T20:08:34.237Z,3.10
2023-03-15T20:11:01.990Z,3.72
2023-03-15T20:13:28.676Z,4.00
2023-03-15T20:15:55.396Z,3.45
2023-03-15T20:18:22.080Z,3.13
2023-03-15T20:20:50.089Z,2.97
2023-03-15T20:23:18.003Z,3.40
2023-03-15T20:25:44.802Z,3.92
2023-03-15T20:28:11.722Z,3.33
2023-03-15T20:30:40.763Z,3.33
2023-03-15T20:33:08.297Z,4.22
2023-03-15T20:35:35.741Z,2.83
2023-03-15T20:38:06.672Z,2.92
2023-03-15T20:40:34.489Z,3.10
2023-03-15T20:43:01.967Z,3.20
2023-03-15T20:45:28.670Z,2.92
2023-03-15T20:47:55.281Z,3.58
2023-03-15T20:50:22.405Z,3.17
2023-03-15T20:52:49.273Z,3.30
2023-03-15T20:55:15.995Z,3.45
2023-03-15T20:57:43.049Z,3.10
2023-03-15T21:00:16.443Z,3.50
2023-03-15T21:02:43.197Z,3.13
2023-03-15T21:05:10.178Z,3.72
2023-03-15T21:07:36.784Z,4.03
2023-03-15T21:10:03.741Z,4.10
2023-03-15T21:12:30.519Z,3.85
2023-03-15T21:14:57.321Z,4.22
2023-03-15T21:17:23.969Z,4.63
2023-03-15T21:19:50.690Z,3.65
2023-03-15T21:22:18.203Z,4.15
2023-03-15T21:24:55.004Z,5.65
2023-03-15T21:27:22.396Z,4.15
2023-03-15T21:29:49.039Z,4.78
2023-03-15T21:32:15.801Z,4.20
2023-03-15T21:34:42.548Z,3.97
2023-03-15T21:37:09.296Z,4.57
2023-03-15T21:39:37.881Z,5.35
2023-03-15T21:42:05.010Z,4.70
2023-03-15T21:44:33.699Z,4.75
2023-03-15T21:47:01.879Z,5.38
2023-03-15T21:49:28.547Z,4.82
2023-03-15T21:51:55.215Z,4.50
2023-03-15T21:54:21.837Z,4.55
2023-03-15T21:56:48.593Z,5.20
2023-03-15T21:59:15.188Z,5.82
2023-03-15T22:01:41.839Z,5.50
2023-03-15T22:04:08.690Z,5.85
2023-03-15T22:06:35.307Z,5.07
2023-03-15T22:09:01.931Z,5.05
2023-03-15T22:11:28.764Z,5.22
2023-03-15T22:13:55.441Z,5.68
2023-03-15T22:16:22.296Z,5.30
2023-03-15T22:18:48.938Z,5.60
2023-03-15T22:21:15.596Z,6.13
2023-03-15T22:23:42.218Z,5.35
2023-03-15T22:26:09.036Z,7.13
2023-03-15T22:28:35.629Z,6.30
2023-03-15T22:31:02.505Z,6.85
2023-03-15T22:33:29.266Z,5.88
2023-03-15T22:35:57.681Z,7.30
2023-03-15T22:38:24.810Z,5.65
2023-03-15T22:41:01.409Z,6.43
2023-03-15T22:43:28.088Z,6.80
2023-03-15T22:45:55.006Z,6.63
2023-03-15T22:48:22.791Z,6.45
2023-03-15T22:50:56.916Z,5.53
2023-03-15T22:53:23.540Z,4.90
2023-03-15T22:55:50.230Z,5.22
2023-03-15T22:58:16.878Z,6.47
2023-03-15T23:00:43.857Z,5.40
2023-03-15T23:03:10.901Z,5.78
2023-03-15T23:05:37.721Z,6.15
2023-03-15T23:08:05.326Z,7.43
2023-03-15T23:10:32.357Z,6.72
2023-03-15T23:12:59.115Z,5.85
2023-03-15T23:15:25.873Z,6.43
2023-03-15T23:17:54.534Z,6.65
2023-03-15T23:20:21.535Z,7.45
2023-03-15T23:22:48.204Z,6.43
2023-03-15T23:25:15.875Z,6.00
2023-03-15T23:27:42.596Z,6.70
2023-03-15T23:30:10.296Z,6.60
2023-03-15T23:32:37.038Z,7.97
2023-03-15T23:35:05.023Z,6.55
2023-03-15T23:37:32.779Z,6.68
2023-03-15T23:39:59.707Z,6.63
2023-03-15T23:42:27.481Z,6.97
2023-03-15T23:44:55.412Z,6.80
2023-03-15T23:47:22.829Z,8.35
2023-03-15T23:49:49.785Z,6.93
2023-03-15T23:52:16.751Z,6.57
2023-03-15T23:54:43.433Z,7.40
2023-03-15T23:57:11.972Z,7.85
2023-03-15T23:59:38.918Z,7.50
